createdAt,value
2023-02-08T00:00:13.228Z,9.50
2023-02-08T00:02:40.606Z,10.07
2023-02-08T00:05:07.838Z,9.97
2023-02-08T00:07:35.038Z,10.30
2023-02-08T00:10:05.070Z,10.20
2023-02-08T00:12:32.198Z,10.50
2023-02-08T00:14:59.353Z,10.03
2023-02-08T00:17:26.581Z,10.80
2023-02-08T00:19:53.721Z,10.37
2023-02-08T00:22:20.945Z,11.03
2023-02-08T00:24:48.599Z,9.90
2023-02-08T00:27:15.845Z,10.80
2023-02-08T00:29:42.960Z,10.50
2023-02-08T00:32:10.660Z,10.60
2023-02-08T00:34:38.714Z,10.87
2023-02-08T00:37:06.328Z,10.13
2023-02-08T00:39:33.713Z,10.53
2023-02-08T00:42:00.905Z,10.70
2023-02-08T00:44:28.040Z,10.07
2023-02-08T00:46:55.626Z,11.20
2023-02-08T00:49:22.798Z,10.80
2023-02-08T00:51:49.966Z,10.47
2023-02-08T00:54:18.197Z,10.20
2023-02-08T00:56:45.498Z,9.93
2023-02-08T00:59:12.683Z,10.07
2023-02-08T01:01:40.485Z,10.83
2023-02-08T01:04:07.770Z,9.63
2023-02-08T01:06:35.070Z,10.77
2023-02-08T01:09:02.212Z,10.03
2023-02-08T01:11:29.397Z,9.87
2023-02-08T01:13:57.816Z,9.97
2023-02-08T01:16:27.691Z,10.93
2023-02-08T01:18:55.490Z,10.03
2023-02-08T01:21:23.968Z,10.33
2023-02-08T01:23:51.107Z,10.10
2023-02-08T01:26:18.971Z,10.20
2023-02-08T01:28:46.360Z,10.80
2023-02-08T01:31:15.131Z,10.50
2023-02-08T01:33:42.730Z,10.90
2023-02-08T01:36:10.227Z,10.13
2023-02-08T01:38:38.209Z,10.37
2023-02-08T01:41:06.108Z,9.90
2023-02-08T01:43:56.328Z,10.10
2023-02-08T01:46:23.532Z,10.57
2023-02-08T01:48:51.551Z,10.03
2023-02-08T01:51:21.480Z,10.87
2023-02-08T01:53:50.278Z,10.10
2023-02-08T01:56:27.713Z,10.47
2023-02-08T01:58:57.384Z,10.30
2023-02-08T02:01:24.778Z,9.80
2023-02-08T02:03:52.028Z,9.83
2023-02-08T02:06:23.344Z,9.90
2023-02-08T02:08:55.566Z,10.43
2023-02-08T02:11:22.686Z,10.23
2023-02-08T02:13:51.060Z,9.17
2023-02-08T02:16:18.501Z,9.93
2023-02-08T02:18:45.625Z,9.67
2023-02-08T02:21:12.733Z,9.67
2023-02-08T02:23:39.821Z,9.80
2023-02-08T02:26:22.336Z,9.10
2023-02-08T02:29:00.506Z,9.20
2023-02-08T02:31:39.884Z,9.00
2023-02-08T02:34:12.912Z,9.30
2023-02-08T02:36:40.109Z,9.27
2023-02-08T02:39:25.909Z,9.17
2023-02-08T02:42:30.891Z,9.87
2023-02-08T02:45:24.508Z,7.93
2023-02-08T02:48:03.760Z,10.00
2023-02-08T02:50:37.906Z,9.27
2023-02-08T02:53:20.801Z,9.47
2023-02-08T02:55:49.785Z,10.50
2023-02-08T02:58:18.343Z,8.97
2023-02-08T03:00:46.117Z,9.90
2023-02-08T03:03:27.725Z,9.37
2023-02-08T03:06:01.506Z,9.77
2023-02-08T03:08:47.394Z,8.97
2023-02-08T03:11:20.671Z,10.37
2023-02-08T03:13:59.789Z,9.97
2023-02-08T03:16:29.758Z,10.20
2023-02-08T03:19:11.895Z,10.80
2023-02-08T03:21:51.732Z,10.20
2023-02-08T03:24:18.828Z,11.17
2023-02-08T03:27:04.530Z,10.97
2023-02-08T03:29:41.049Z,10.50
2023-02-08T03:32:13.791Z,10.30
2023-02-08T03:34:40.891Z,10.53
2023-02-08T03:37:20.886Z,10.13
2023-02-08T03:39:49.341Z,9.80
2023-02-08T03:42:19.958Z,11.03
2023-02-08T03:44:58.956Z,10.80
2023-02-08T03:47:27.951Z,9.77
2023-02-08T03:49:56.732Z,9.77
2023-02-08T03:52:24.145Z,10.57
2023-02-08T03:54:52.705Z,10.23
2023-02-08T03:57:24.879Z,10.40
2023-02-08T04:00:00.055Z,10.40
2023-02-08T04:02:29.311Z,10.00
2023-02-08T04:04:57.284Z,10.10
2023-02-08T04:07:24.448Z,10.40
2023-02-08T04:09:51.604Z,10.33
2023-02-08T04:12:18.845Z,10.27
2023-02-08T04:14:45.980Z,10.10
2023-02-08T04:17:13.101Z,11.10
2023-02-08T04:19:40.236Z,11.23
2023-02-08T04:22:07.438Z,11.23
2023-02-08T04:24:34.565Z,11.37
2023-02-08T04:27:01.717Z,11.40
2023-02-08T04:29:28.851Z,11.63
2023-02-08T04:31:56.059Z,11.47
2023-02-08T04:34:23.273Z,11.77
2023-02-08T04:36:50.422Z,10.83
2023-02-08T04:39:17.602Z,11.97
2023-02-08T04:41:44.797Z,11.83
2023-02-08T04:44:11.930Z,12.20
2023-02-08T04:46:39.079Z,12.13
2023-02-08T04:49:06.208Z,12.90
2023-02-08T04:51:33.357Z,12.27
2023-02-08T04:54:00.523Z,12.77
2023-02-08T04:56:27.645Z,13.27
2023-02-08T04:58:54.804Z,13.77
2023-02-08T05:01:22.115Z,13.40
2023-02-08T05:03:49.296Z,13.10
2023-02-08T05:06:16.456Z,13.40
2023-02-08T05:08:43.595Z,13.47
2023-02-08T05:11:10.732Z,13.73
2023-02-08T05:13:37.904Z,14.00
2023-02-08T05:16:05.161Z,13.20
2023-02-08T05:18:32.298Z,13.37
2023-02-08T05:21:00.526Z,14.30
2023-02-08T05:23:27.775Z,14.27
2023-02-08T05:25:54.914Z,13.83
2023-02-08T05:28:22.255Z,14.57
2023-02-08T05:30:49.942Z,14.40
2023-02-08T05:33:17.365Z,13.87
2023-02-08T05:35:45.545Z,15.17
2023-02-08T05:38:12.681Z,15.40
2023-02-08T05:40:40.136Z,14.33
2023-02-08T05:43:07.449Z,14.83
2023-02-08T05:45:34.640Z,14.77
2023-02-08T05:48:01.753Z,15.30
2023-02-08T05:50:28.913Z,15.30
2023-02-08T05:52:56.057Z,14.70
2023-02-08T05:55:23.249Z,14.33
2023-02-08T05:57:50.450Z,14.90
2023-02-08T06:00:17.721Z,14.50
2023-02-08T06:02:45.108Z,16.43
2023-02-08T06:05:12.475Z,15.50
2023-02-08T06:07:39.611Z,17.43
2023-02-08T06:10:07.012Z,16.23
2023-02-08T06:12:34.152Z,16.47
2023-02-08T06:15:01.286Z,17.30
2023-02-08T06:17:28.533Z,17.00
2023-02-08T06:19:55.772Z,17.07
2023-02-08T06:22:22.919Z,16.33
2023-02-08T06:24:50.058Z,17.77
2023-02-08T06:27:17.184Z,15.60
2023-02-08T06:29:44.339Z,17.87
2023-02-08T06:32:11.583Z,18.53
2023-02-08T06:34:38.735Z,18.20
2023-02-08T06:37:05.973Z,17.93
2023-02-08T06:39:33.178Z,17.33
2023-02-08T06:42:00.369Z,18.30
2023-02-08T06:44:27.763Z,18.40
2023-02-08T06:46:54.972Z,18.07
2023-02-08T06:49:22.148Z,18.63
2023-02-08T06:51:49.322Z,16.27
2023-02-08T06:54:16.579Z,18.00
2023-02-08T06:56:44.006Z,16.20
2023-02-08T06:59:11.429Z,16.60
2023-02-08T07:01:38.837Z,16.03
2023-02-08T07:04:06.220Z,15.07
2023-02-08T07:06:33.789Z,15.23
2023-02-08T07:09:02.522Z,15.87
2023-02-08T07:11:29.672Z,16.00
2023-02-08T07:13:56.866Z,15.43
2023-02-08T07:16:24.265Z,15.03
2023-02-08T07:18:51.410Z,15.07
2023-02-08T07:21:18.649Z,15.07
2023-02-08T07:23:45.840Z,17.17
2023-02-08T07:26:14.636Z,16.63
2023-02-08T07:28:42.021Z,15.27
2023-02-08T07:31:10.164Z,16.27
2023-02-08T07:33:37.666Z,15.90
2023-02-08T07:36:05.386Z,16.43
2023-02-08T07:38:33.762Z,15.63
2023-02-08T07:41:02.094Z,16.23
2023-02-08T07:43:29.294Z,17.07
2023-02-08T07:45:56.515Z,17.50
2023-02-08T07:48:23.673Z,16.90
2023-02-08T07:50:50.802Z,17.47
2023-02-08T07:53:18.052Z,17.83
2023-02-08T07:55:46.183Z,18.03
2023-02-08T07:58:14.207Z,15.97
2023-02-08T08:00:41.568Z,17.50
2023-02-08T08:03:08.907Z,17.57
2023-02-08T08:05:36.096Z,17.50
2023-02-08T08:08:03.393Z,17.60
2023-02-08T08:10:30.549Z,18.73
2023-02-08T08:12:57.718Z,17.80
2023-02-08T08:15:24.951Z,17.70
2023-02-08T08:17:52.135Z,18.13
2023-02-08T08:20:19.374Z,17.77
2023-02-08T08:22:46.888Z,17.63
2023-02-08T08:25:14.051Z,17.40
2023-02-08T08:27:41.470Z,18.53
2023-02-08T08:30:09.559Z,19.20
2023-02-08T08:32:38.205Z,18.80
2023-02-08T08:35:05.868Z,17.73
2023-02-08T08:37:33.524Z,19.30
2023-02-08T08:40:00.706Z,18.37
2023-02-08T08:42:27.859Z,18.70
2023-02-08T08:44:56.193Z,18.97
2023-02-08T08:47:23.375Z,18.50
2023-02-08T08:49:50.502Z,19.80
2023-02-08T08:52:17.969Z,18.13
2023-02-08T08:54:45.198Z,19.57
2023-02-08T08:57:12.333Z,17.70
2023-02-08T08:59:39.482Z,18.83
2023-02-08T09:02:06.708Z,16.47
2023-02-08T09:04:34.479Z,18.97
2023-02-08T09:07:01.599Z,17.63
2023-02-08T09:09:28.771Z,17.90
2023-02-08T09:11:55.917Z,18.00
2023-02-08T09:14:23.046Z,18.13
2023-02-08T09:16:50.438Z,18.17
2023-02-08T09:19:17.766Z,17.13
2023-02-08T09:21:45.117Z,17.70
2023-02-08T09:24:12.332Z,16.70
2023-02-08T09:26:39.784Z,17.13
2023-02-08T09:29:10.497Z,17.40
2023-02-08T09:31:38.083Z,17.30
2023-02-08T09:34:06.660Z,17.00
2023-02-08T09:36:35.500Z,16.20
2023-02-08T09:39:05.825Z,17.40
2023-02-08T09:41:51.754Z,16.23
2023-02-08T09:44:27.977Z,16.53
2023-02-08T09:47:01.643Z,16.93
2023-02-08T09:49:31.770Z,16.37
2023-02-08T09:52:01.360Z,16.33
2023-02-08T09:54:28.462Z,17.23
2023-02-08T09:56:56.152Z,16.20
2023-02-08T09:59:29.895Z,17.73
2023-02-08T10:02:02.180Z,18.97
2023-02-08T10:04:41.510Z,18.47
2023-02-08T10:07:10.476Z,18.70
2023-02-08T10:09:37.635Z,17.80
2023-02-08T10:12:07.980Z,18.80
2023-02-08T10:14:41.247Z,18.87
2023-02-08T10:17:11.050Z,20.23
2023-02-08T10:19:38.238Z,19.63
2023-02-08T10:22:05.370Z,19.97
2023-02-08T10:24:35.339Z,19.93
2023-02-08T10:27:18.372Z,20.20
2023-02-08T10:30:01.874Z,19.53
2023-02-08T10:32:40.602Z,18.53
2023-02-08T10:35:13.423Z,19.30
2023-02-08T10:37:46.236Z,19.33
2023-02-08T10:40:21.028Z,20.30
2023-02-08T10:42:55.818Z,18.97
2023-02-08T10:45:26.641Z,19.97
2023-02-08T10:47:57.060Z,18.20
2023-02-08T10:50:29.234Z,19.17
2023-02-08T10:52:57.332Z,20.30
2023-02-08T10:55:24.505Z,19.43
2023-02-08T10:57:52.580Z,19.23
2023-02-08T11:00:19.686Z,19.57
2023-02-08T11:02:49.997Z,20.63
2023-02-08T11:05:23.265Z,18.33
2023-02-08T11:08:05.142Z,18.27
2023-02-08T11:10:32.551Z,18.83
2023-02-08T11:13:01.294Z,18.60
2023-02-08T11:15:34.316Z,18.80
2023-02-08T11:18:02.397Z,18.60
2023-02-08T11:20:36.635Z,19.97
2023-02-08T11:23:05.456Z,18.70
2023-02-08T11:25:35.880Z,19.23
2023-02-08T11:28:03.379Z,19.73
2023-02-08T11:30:30.867Z,18.80
2023-02-08T11:33:18.510Z,19.50
2023-02-08T11:36:08.365Z,18.57
2023-02-08T11:38:36.829Z,17.50
2023-02-08T11:41:06.080Z,18.00
2023-02-08T11:43:35.342Z,17.47
2023-02-08T11:46:04.473Z,18.50
2023-02-08T11:48:51.410Z,18.87
2023-02-08T11:51:26.887Z,18.60
2023-02-08T11:53:54.117Z,16.57
2023-02-08T11:56:22.611Z,16.17
2023-02-08T11:59:00.664Z,15.93
2023-02-08T12:01:29.865Z,16.03
2023-02-08T12:03:58.829Z,15.23
2023-02-08T12:06:44.773Z,15.00
2023-02-08T12:09:14.892Z,13.73
2023-02-08T12:11:42.056Z,12.93
2023-02-08T12:14:28.012Z,14.23
2023-02-08T12:17:01.288Z,12.43
2023-02-08T12:19:28.431Z,12.30
2023-02-08T12:22:02.047Z,12.57
2023-02-08T12:24:47.987Z,12.50
2023-02-08T12:27:17.158Z,12.90
2023-02-08T12:29:54.982Z,12.80
2023-02-08T12:32:34.028Z,13.23
2023-02-08T12:35:29.523Z,12.20
2023-02-08T12:39:07.846Z,13.77
2023-02-08T12:41:44.078Z,13.80
2023-02-08T12:44:23.093Z,13.33
2023-02-08T12:46:59.828Z,12.80
2023-02-08T12:49:26.954Z,13.03
2023-02-08T12:51:56.822Z,11.90
2023-02-08T12:54:39.241Z,12.27
2023-02-08T12:57:06.711Z,12.17
2023-02-08T12:59:40.424Z,14.60
2023-02-08T13:02:27.793Z,13.33
2023-02-08T13:04:59.581Z,13.13
2023-02-08T13:07:31.089Z,11.33
2023-02-08T13:10:03.926Z,14.07
2023-02-08T13:12:33.334Z,14.83
2023-02-08T13:15:28.413Z,15.03
2023-02-08T13:18:23.548Z,14.83
2023-02-08T13:20:52.642Z,14.40
2023-02-08T13:23:27.664Z,14.90
2023-02-08T13:26:15.655Z,14.27
2023-02-08T13:28:47.902Z,17.90
2023-02-08T13:31:18.312Z,17.67
2023-02-08T13:34:08.001Z,19.53
2023-02-08T13:36:40.495Z,19.60
2023-02-08T13:39:09.436Z,18.80
2023-02-08T13:41:37.411Z,21.53
2023-02-08T13:44:05.724Z,21.27
2023-02-08T13:46:38.957Z,21.13
2023-02-08T13:49:06.205Z,21.13
2023-02-08T13:51:33.324Z,20.40
2023-02-08T13:54:00.723Z,19.93
2023-02-08T13:56:44.499Z,19.80
2023-02-08T13:59:33.679Z,18.83
2023-02-08T14:02:12.919Z,18.57
2023-02-08T14:04:40.730Z,16.90
2023-02-08T14:07:28.782Z,18.07
2023-02-08T14:10:10.734Z,18.43
2023-02-08T14:12:37.844Z,17.90
2023-02-08T14:15:16.829Z,19.87
2023-02-08T14:17:48.878Z,19.17
2023-02-08T14:20:36.390Z,19.53
2023-02-08T14:23:04.984Z,20.83
2023-02-08T14:25:38.215Z,18.73
2023-02-08T14:28:05.855Z,18.90
2023-02-08T14:30:34.283Z,20.10
2023-02-08T14:33:01.402Z,25.90
2023-02-08T14:35:29.155Z,22.33
2023-02-08T14:38:31.387Z,21.30
2023-02-08T14:40:58.548Z,21.17
2023-02-08T14:43:30.089Z,19.70
2023-02-08T14:45:57.661Z,21.70
2023-02-08T14:48:29.340Z,21.10
2023-02-08T14:51:11.891Z,20.90
2023-02-08T14:53:54.379Z,19.27
2023-02-08T14:56:28.080Z,21.60
2023-02-08T14:59:01.046Z,20.27
2023-02-08T15:01:28.214Z,20.23
2023-02-08T15:03:58.422Z,19.83
2023-02-08T15:06:53.841Z,21.90
2023-02-08T15:09:21.125Z,22.63
2023-02-08T15:11:50.739Z,20.23
2023-02-08T15:14:19.798Z,21.83
2023-02-08T15:16:47.072Z,22.87
2023-02-08T15:19:26.805Z,22.47
2023-02-08T15:21:54.236Z,18.50
2023-02-08T15:24:22.925Z,22.07
2023-02-08T15:26:50.034Z,22.90
2023-02-08T15:29:19.126Z,23.50
2023-02-08T15:31:46.806Z,23.77
2023-02-08T15:34:14.071Z,24.13
2023-02-08T15:36:45.804Z,24.03
2023-02-08T15:39:30.946Z,24.40
2023-02-08T15:42:01.858Z,24.60
2023-02-08T15:44:33.784Z,25.30
2023-02-08T15:47:05.334Z,25.37
2023-02-08T15:49:40.597Z,26.23
2023-02-08T15:52:08.358Z,25.73
2023-02-08T15:54:35.581Z,26.97
2023-02-08T15:57:09.196Z,20.03
2023-02-08T15:59:38.645Z,26.63
2023-02-08T16:02:23.914Z,27.57
2023-02-08T16:04:51.176Z,27.53
2023-02-08T16:07:24.311Z,27.00
2023-02-08T16:09:51.699Z,28.90
2023-02-08T16:12:23.339Z,29.00
2023-02-08T16:14:52.749Z,30.63
2023-02-08T16:17:32.464Z,28.33
2023-02-08T16:19:59.652Z,28.33
2023-02-08T16:22:28.968Z,29.37
2023-02-08T16:25:16.158Z,31.37
2023-02-08T16:27:47.985Z,29.03
2023-02-08T16:30:19.962Z,30.23
2023-02-08T16:32:47.200Z,29.37
2023-02-08T16:35:15.581Z,29.93
2023-02-08T16:37:43.063Z,30.17
2023-02-08T16:40:11.404Z,30.10
2023-02-08T16:42:40.498Z,29.13
2023-02-08T16:45:13.823Z,31.17
2023-02-08T16:47:45.969Z,31.93
2023-02-08T16:50:14.785Z,31.83
2023-02-08T16:52:42.124Z,30.17
2023-02-08T16:55:15.935Z,32.77
2023-02-08T16:57:51.187Z,26.03
2023-02-08T17:00:20.517Z,32.47
2023-02-08T17:02:48.060Z,30.07
2023-02-08T17:05:15.553Z,32.60
2023-02-08T17:07:42.736Z,28.03
2023-02-08T17:10:14.954Z,28.90
2023-02-08T17:12:42.128Z,33.57
2023-02-08T17:15:09.419Z,31.93
2023-02-08T17:17:36.557Z,33.30
2023-02-08T17:20:03.687Z,33.10
2023-02-08T17:22:30.860Z,31.63
2023-02-08T17:24:58.036Z,30.17
2023-02-08T17:27:25.598Z,29.40
2023-02-08T17:29:52.906Z,30.23
2023-02-08T17:32:20.026Z,28.83
2023-02-08T17:34:47.182Z,28.73
2023-02-08T17:37:14.496Z,28.40
2023-02-08T17:39:41.667Z,21.20
2023-02-08T17:42:08.784Z,26.77
2023-02-08T17:44:35.904Z,23.03
2023-02-08T17:47:03.034Z,29.20
2023-02-08T17:49:30.336Z,28.07
2023-02-08T17:51:58.134Z,28.80
2023-02-08T17:54:25.241Z,26.63
2023-02-08T17:56:56.535Z,18.20
2023-02-08T17:59:23.703Z,25.40
2023-02-08T18:01:50.944Z,25.10
2023-02-08T18:04:18.148Z,25.83
2023-02-08T18:06:45.274Z,28.85
2023-02-08T18:09:12.466Z,28.63
2023-02-08T18:11:39.582Z,28.10
2023-02-08T18:14:06.707Z,24.67
2023-02-08T18:16:35.759Z,25.87
2023-02-08T18:19:02.923Z,25.07
2023-02-08T18:21:33.104Z,24.17
2023-02-08T18:24:06.523Z,25.83
2023-02-08T18:26:34.558Z,24.37
2023-02-08T18:29:02.107Z,26.50
2023-02-08T18:31:29.986Z,24.47
2023-02-08T18:33:57.234Z,26.27
2023-02-08T18:36:24.876Z,22.67
2023-02-08T18:38:52.956Z,19.63
2023-02-08T18:41:24.912Z,24.90
2023-02-08T18:43:53.380Z,22.43
2023-02-08T18:46:21.582Z,23.43
2023-02-08T18:48:49.220Z,23.60
2023-02-08T18:51:19.549Z,23.87
2023-02-08T18:53:50.863Z,22.97
2023-02-08T18:56:21.442Z,23.10
2023-02-08T18:58:48.637Z,18.43
2023-02-08T19:01:18.109Z,23.37
2023-02-08T19:03:45.633Z,20.67
2023-02-08T19:06:16.200Z,22.17
2023-02-08T19:08:44.974Z,21.47
2023-02-08T19:11:20.599Z,22.23
2023-02-08T19:13:48.243Z,21.57
2023-02-08T19:16:17.402Z,20.87
2023-02-08T19:18:45.046Z,19.73
2023-02-08T19:21:13.338Z,16.80
2023-02-08T19:23:40.576Z,17.23
2023-02-08T19:26:09.203Z,15.97
2023-02-08T19:28:36.595Z,16.27
2023-02-08T19:31:11.213Z,14.57
2023-02-08T19:33:38.909Z,15.30
2023-02-08T19:36:15.501Z,13.60
2023-02-08T19:38:43.138Z,13.57
2023-02-08T19:41:14.268Z,11.63
2023-02-08T19:43:41.503Z,11.23
2023-02-08T19:46:15.490Z,11.07
2023-02-08T19:48:43.327Z,12.20
2023-02-08T19:51:10.576Z,13.00
2023-02-08T19:53:37.757Z,11.73
2023-02-08T19:56:06.307Z,11.30
2023-02-08T19:58:34.425Z,10.37
2023-02-08T20:01:05.717Z,11.07
2023-02-08T20:03:32.889Z,10.93
2023-02-08T20:06:00.081Z,10.10
2023-02-08T20:08:27.450Z,11.03
2023-02-08T20:10:55.231Z,11.27
2023-02-08T20:13:22.376Z,10.93
2023-02-08T20:15:49.784Z,10.70
2023-02-08T20:18:17.742Z,10.57
2023-02-08T20:20:44.906Z,11.50
2023-02-08T20:23:22.595Z,11.03
2023-02-08T20:25:50.013Z,11.87
2023-02-08T20:28:17.220Z,11.70
2023-02-08T20:30:44.435Z,12.57
2023-02-08T20:33:11.591Z,12.47
2023-02-08T20:35:38.766Z,11.93
2023-02-08T20:38:05.890Z,12.40
2023-02-08T20:40:33.018Z,12.23
2023-02-08T20:43:00.207Z,11.47
2023-02-08T20:45:27.356Z,12.40
2023-02-08T20:47:54.521Z,12.07
2023-02-08T20:50:21.699Z,12.53
2023-02-08T20:52:49.112Z,13.27
2023-02-08T20:55:16.390Z,12.03
2023-02-08T20:57:43.566Z,10.87
2023-02-08T21:00:11.037Z,12.00
2023-02-08T21:02:38.170Z,15.07
2023-02-08T21:05:05.486Z,11.27
2023-02-08T21:07:32.629Z,12.90
2023-02-08T21:09:59.846Z,12.37
2023-02-08T21:12:27.007Z,10.20
2023-02-08T21:14:54.118Z,11.67
2023-02-08T21:17:21.225Z,10.43
2023-02-08T21:19:48.365Z,11.07
2023-02-08T21:22:17.032Z,11.93
2023-02-08T21:24:44.187Z,11.97
2023-02-08T21:27:11.463Z,11.43
2023-02-08T21:29:38.671Z,11.60
2023-02-08T21:32:05.907Z,11.13
2023-02-08T21:34:33.047Z,10.37
2023-02-08T21:37:00.176Z,11.13
2023-02-08T21:39:27.305Z,10.60
2023-02-08T21:41:55.466Z,9.70
2023-02-08T21:44:22.774Z,10.37
2023-02-08T21:46:49.975Z,11.43
2023-02-08T21:49:35.607Z,10.77
2023-02-08T21:52:21.560Z,9.57
2023-02-08T21:54:53.413Z,8.97
2023-02-08T21:57:25.810Z,9.37
2023-02-08T21:59:54.048Z,9.17
2023-02-08T22:02:25.627Z,10.27
2023-02-08T22:04:53.593Z,9.63
2023-02-08T22:07:21.257Z,10.67
2023-02-08T22:09:48.581Z,8.90
2023-02-08T22:12:16.452Z,9.13
2023-02-08T22:14:43.957Z,8.53
2023-02-08T22:17:11.249Z,8.67
2023-02-08T22:19:41.907Z,9.77
2023-02-08T22:22:09.521Z,9.53
2023-02-08T22:24:36.951Z,9.63
2023-02-08T22:27:04.284Z,10.40
2023-02-08T22:29:31.494Z,9.67
2023-02-08T22:31:58.893Z,10.27
2023-02-08T22:34:27.525Z,10.37
2023-02-08T22:36:54.666Z,10.50
2023-02-08T22:39:22.346Z,10.67
2023-02-08T22:41:49.576Z,9.40
2023-02-08T22:44:16.774Z,10.97
2023-02-08T22:46:43.947Z,11.40
2023-02-08T22:49:11.100Z,10.00
2023-02-08T22:51:38.284Z,9.20
2023-02-08T22:54:05.483Z,10.40
2023-02-08T22:56:32.629Z,9.23
2023-02-08T22:59:00.261Z,10.63
2023-02-08T23:01:27.487Z,10.73
2023-02-08T23:03:54.702Z,11.57
2023-02-08T23:06:21.816Z,10.67
2023-02-08T23:08:49.106Z,10.97
2023-02-08T23:11:16.592Z,11.60
2023-02-08T23:13:43.727Z,10.27
2023-02-08T23:16:14.676Z,8.47
2023-02-08T23:18:42.184Z,8.93
2023-02-08T23:21:11.027Z,9.40
2023-02-08T23:23:38.185Z,9.57
2023-02-08T23:26:16.172Z,10.60
2023-02-08T23:28:43.472Z,9.73
2023-02-08T23:31:11.733Z,9.40
2023-02-08T23:33:39.628Z,9.07
2023-02-08T23:36:11.219Z,9.43
2023-02-08T23:38:38.706Z,9.57
2023-02-08T23:41:06.406Z,9.03
2023-02-08T23:43:33.975Z,8.73
2023-02-08T23:46:05.612Z,9.47
2023-02-08T23:48:32.808Z,7.03
2023-02-08T23:51:00.605Z,9.07
2023-02-08T23:53:30.264Z,9.43
2023-02-08T23:56:06.786Z,8.37
2023-02-08T23:58:34.108Z,8.37
